Time;durP1;ratioP1;P1;durP2;ratioP2;P2;SDS_P1;SDS_P2;PMS_P1;PMS_P2;Temp;Humidity;BMP_temperature;BMP_pressure;BME280_temperature;BME280_humidity;BME280_pressure;Samples;Min_cycle;Max_cycle;Signal;HPM_P1;HPM_P2
2021/03/16 00:01:41;;;;;;;0.00;0.00;;;5.50;99.90;;;;;;6152929;23;20788;-67
2021/03/16 00:04:08;;;;;;;0.00;0.00;;;5.50;99.90;;;;;;6153216;23;20410;-67
2021/03/16 00:06:34;;;;;;;0.00;0.00;;;5.50;99.90;;;;;;6153425;23;20754;-68
2021/03/16 00:09:00;;;;;;;0.00;0.00;;;5.40;99.90;;;;;;6152558;23;20862;-67
2021/03/16 00:11:26;;;;;;;0.00;0.00;;;5.50;99.90;;;;;;6153234;23;20397;-67
2021/03/16 00:13:53;;;;;;;0.00;0.00;;;5.40;99.90;;;;;;6152737;23;20387;-67
2021/03/16 00:16:20;;;;;;;0.00;0.00;;;5.30;99.90;;;;;;6153056;23;20391;-67
2021/03/16 00:18:46;;;;;;;0.00;0.00;;;5.20;99.90;;;;;;6152867;23;20374;-67
2021/03/16 00:21:12;;;;;;;0.00;0.00;;;5.20;99.90;;;;;;6153042;23;20908;-67
2021/03/16 00:23:38;;;;;;;0.00;0.00;;;5.20;99.90;;;;;;6152539;23;20406;-67
2021/03/16 00:26:04;;;;;;;0.00;0.00;;;5.10;99.90;;;;;;6153589;23;20379;-67
2021/03/16 00:28:30;;;;;;;0.00;0.00;;;5.10;99.90;;;;;;6152766;23;20386;-66
2021/03/16 00:30:58;;;;;;;0.00;0.00;;;5.10;99.90;;;;;;6153329;23;20704;-67
2021/03/16 00:33:24;;;;;;;0.00;0.00;;;5.10;99.90;;;;;;6153360;23;20383;-67
2021/03/16 00:35:50;;;;;;;0.00;0.00;;;5.10;99.90;;;;;;6152950;23;20375;-66
2021/03/16 00:38:16;;;;;;;0.00;0.00;;;5.10;99.90;;;;;;6153175;23;20375;-66
2021/03/16 00:40:43;;;;;;;0.00;0.00;;;5.10;99.90;;;;;;6152867;23;20480;-67
2021/03/16 00:43:09;;;;;;;0.00;0.00;;;5.10;99.90;;;;;;6153246;23;20382;-67
2021/03/16 00:45:35;;;;;;;0.00;0.00;;;5.20;99.90;;;;;;6152903;23;20383;-67
2021/03/16 00:48:02;;;;;;;0.00;0.00;;;5.20;99.90;;;;;;6152530;23;20370;-66
2021/03/16 00:50:28;;;;;;;0.00;0.00;;;5.20;99.90;;;;;;6152996;23;20445;-67
2021/03/16 00:52:54;;;;;;;0.00;0.00;;;5.20;99.90;;;;;;6152721;23;20758;-67
2021/03/16 00:55:21;;;;;;;0.00;0.00;;;5.30;99.90;;;;;;6153316;23;20719;-67
2021/03/16 00:57:47;;;;;;;0.00;0.00;;;5.40;99.90;;;;;;6153017;23;20382;-67
2021/03/16 01:00:14;;;;;;;0.00;0.00;;;5.30;99.90;;;;;;6152538;23;20382;-66
2021/03/16 01:02:40;;;;;;;0.00;0.00;;;5.30;99.90;;;;;;6153473;23;20379;-67
2021/03/16 01:05:08;;;;;;;0.00;0.00;;;5.30;99.90;;;;;;6152996;23;20375;-67
2021/03/16 01:07:34;;;;;;;0.00;0.00;;;5.20;99.90;;;;;;6152196;23;20379;-67
2021/03/16 01:10:01;;;;;;;0.00;0.00;;;5.20;99.90;;;;;;6152959;23;20383;-66
2021/03/16 01:12:27;;;;;;;0.00;0.00;;;5.20;99.90;;;;;;6153409;23;20379;-67
2021/03/16 01:14:53;;;;;;;0.00;0.00;;;5.20;99.90;;;;;;6154737;23;20433;-66
2021/03/16 01:17:19;;;;;;;0.00;0.00;;;5.20;99.90;;;;;;6154878;23;20376;-67
2021/03/16 01:19:45;;;;;;;0.00;0.00;;;5.10;99.90;;;;;;6154255;23;20850;-67
2021/03/16 01:22:12;;;;;;;0.00;0.00;;;5.20;99.90;;;;;;6154571;23;20449;-67
2021/03/16 01:24:39;;;;;;;0.00;0.00;;;5.20;99.90;;;;;;6154677;23;20376;-67
2021/03/16 01:27:05;;;;;;;0.00;0.00;;;5.20;99.90;;;;;;6154580;23;20457;-68
2021/03/16 01:29:31;;;;;;;0.00;0.00;;;5.20;99.90;;;;;;6154679;23;20383;-67
2021/03/16 01:31:58;;;;;;;0.00;0.00;;;5.20;99.90;;;;;;6154781;23;20398;-68
2021/03/16 01:34:25;;;;;;;0.00;0.00;;;5.20;99.90;;;;;;6154835;23;20379;-67
2021/03/16 01:36:51;;;;;;;0.00;0.00;;;5.20;99.90;;;;;;6154540;23;20474;-67
2021/03/16 01:39:18;;;;;;;0.00;0.00;;;5.20;99.90;;;;;;6154486;23;20383;-67
2021/03/16 01:41:44;;;;;;;0.00;0.00;;;5.20;99.90;;;;;;6154662;23;20375;-67
2021/03/16 01:44:10;;;;;;;0.00;0.00;;;5.30;99.90;;;;;;6154599;23;20386;-66
2021/03/16 01:46:36;;;;;;;0.00;0.00;;;5.30;99.90;;;;;;6154831;23;20379;-66
2021/03/16 01:49:03;;;;;;;0.00;0.00;;;5.30;99.90;;;;;;6154308;23;20383;-67
2021/03/16 01:51:29;;;;;;;0.00;0.00;;;5.30;99.90;;;;;;6153772;23;20858;-68
2021/03/16 01:53:55;;;;;;;0.00;0.00;;;5.30;99.90;;;;;;6152717;23;20374;-68
2021/03/16 01:56:22;;;;;;;0.00;0.00;;;5.40;99.90;;;;;;6154707;23;20381;-68
2021/03/16 01:58:48;;;;;;;0.00;0.00;;;5.30;99.90;;;;;;6153804;23;20378;-67
2021/03/16 02:01:15;;;;;;;0.00;0.00;;;5.30;99.90;;;;;;6153520;23;20675;-66
2021/03/16 02:03:41;;;;;;;0.00;0.00;;;5.30;99.90;;;;;;6154861;23;20421;-67
2021/03/16 02:06:13;;;;;;;0.00;0.00;;;5.30;99.90;;;;;;6154788;23;20378;-66
2021/03/16 02:08:46;;;;;;;0.00;0.00;;;5.30;99.90;;;;;;6154480;23;20384;-67
2021/03/16 02:11:22;;;;;;;0.00;0.00;;;5.30;99.90;;;;;;6154304;23;20486;-68
2021/03/16 02:13:57;;;;;;;0.00;0.00;;;5.30;99.90;;;;;;6154279;23;20386;-67
2021/03/16 02:16:28;;;;;;;0.00;0.00;;;5.20;99.90;;;;;;6154348;23;20432;-66
2021/03/16 02:18:58;;;;;;;0.00;0.00;;;5.30;99.90;;;;;;6153528;23;20384;-67
2021/03/16 02:21:27;;;;;;;0.00;0.00;;;5.30;99.90;;;;;;6152390;23;20439;-67
2021/03/16 02:24:21;;;;;;;0.00;0.00;;;5.30;99.90;;;;;;6152107;23;20414;-67
2021/03/16 02:27:00;;;;;;;0.00;0.00;;;5.30;99.90;;;;;;6154110;23;20428;-67
2021/03/16 02:29:30;;;;;;;0.00;0.00;;;5.20;99.90;;;;;;6153720;23;20384;-67
2021/03/16 02:31:57;;;;;;;0.00;0.00;;;5.30;99.90;;;;;;6154334;23;20395;-67
2021/03/16 02:34:24;;;;;;;0.00;0.00;;;5.30;99.90;;;;;;6153555;23;20379;-66
2021/03/16 02:36:52;;;;;;;0.00;0.00;;;5.30;99.90;;;;;;6154085;23;20386;-66
2021/03/16 02:39:21;;;;;;;0.00;0.00;;;5.30;99.90;;;;;;6151849;23;20433;-67
2021/03/16 02:41:50;;;;;;;0.00;0.00;;;5.20;99.90;;;;;;6154186;23;20383;-67
2021/03/16 02:44:17;;;;;;;0.00;0.00;;;5.30;99.90;;;;;;6154152;23;20383;-67
2021/03/16 02:46:49;;;;;;;0.00;0.00;;;5.30;99.90;;;;;;6154469;23;20386;-66
2021/03/16 02:49:17;;;;;;;0.00;0.00;;;5.30;99.90;;;;;;6153755;23;20417;-67
2021/03/16 02:51:45;;;;;;;0.00;0.00;;;5.30;99.90;;;;;;6154312;23;20387;-68
2021/03/16 02:54:12;;;;;;;0.00;0.00;;;5.40;99.90;;;;;;6154093;23;20377;-67
2021/03/16 02:56:39;;;;;;;0.00;0.00;;;5.40;99.90;;;;;;6153865;23;20396;-66
2021/03/16 02:59:08;;;;;;;0.00;0.00;;;5.30;99.90;;;;;;6153989;23;20384;-66
2021/03/16 03:01:36;;;;;;;0.00;0.00;;;5.20;99.90;;;;;;6154132;23;20726;-67
2021/03/16 03:04:05;;;;;;;0.00;0.00;;;5.20;99.90;;;;;;6153635;23;20857;-67
2021/03/16 03:06:33;;;;;;;0.00;0.00;;;5.20;99.90;;;;;;6153783;23;20375;-66
2021/03/16 03:09:01;;;;;;;0.00;0.00;;;5.20;99.90;;;;;;6153879;23;20390;-66
2021/03/16 03:11:30;;;;;;;0.00;0.00;;;5.20;99.90;;;;;;6153687;23;20400;-67
2021/03/16 03:13:56;;;;;;;0.00;0.00;;;5.20;99.90;;;;;;6153468;23;20540;-67
2021/03/16 03:16:22;;;;;;;0.00;0.00;;;5.20;99.90;;;;;;6153701;23;20386;-66
2021/03/16 03:18:49;;;;;;;0.00;0.00;;;5.20;99.90;;;;;;6153156;23;20438;-66
2021/03/16 03:21:19;;;;;;;0.00;0.00;;;5.20;99.90;;;;;;6153363;23;20390;-66
2021/03/16 03:23:48;;;;;;;0.00;0.00;;;5.20;99.90;;;;;;6153532;23;20382;-67
2021/03/16 03:26:18;;;;;;;0.00;0.00;;;5.20;99.90;;;;;;6153819;23;20435;-66
2021/03/16 03:28:47;;;;;;;0.00;0.00;;;5.30;99.90;;;;;;6152816;23;20862;-66
2021/03/16 03:31:14;;;;;;;0.00;0.00;;;5.30;99.90;;;;;;6153242;23;20387;-67
2021/03/16 03:33:43;;;;;;;0.00;0.00;;;5.30;99.90;;;;;;6153904;23;20451;-66
2021/03/16 03:36:10;;;;;;;0.00;0.00;;;5.20;99.90;;;;;;6153505;23;20465;-67
2021/03/16 03:38:38;;;;;;;0.00;0.00;;;5.20;99.90;;;;;;6153577;23;20385;-67
2021/03/16 03:41:05;;;;;;;0.00;0.00;;;5.20;99.90;;;;;;6153434;23;20689;-67
2021/03/16 03:43:33;;;;;;;0.00;0.00;;;5.10;99.90;;;;;;6153927;23;20375;-67
2021/03/16 03:46:01;;;;;;;0.00;0.00;;;5.10;99.90;;;;;;6153723;23;20375;-66
2021/03/16 03:48:28;;;;;;;0.00;0.00;;;5.10;99.90;;;;;;6153485;23;20378;-67
2021/03/16 03:50:58;;;;;;;0.00;0.00;;;4.90;99.90;;;;;;6153157;23;20418;-67
2021/03/16 03:53:25;;;;;;;0.00;0.00;;;5.00;99.90;;;;;;6153448;23;20405;-68
2021/03/16 03:55:54;;;;;;;0.00;0.00;;;5.00;99.90;;;;;;6153726;23;20386;-66
2021/03/16 03:58:21;;;;;;;0.00;0.00;;;5.00;99.90;;;;;;6152698;23;20853;-68
2021/03/16 04:00:48;;;;;;;0.00;0.00;;;5.00;99.90;;;;;;6153545;23;20380;-66
2021/03/16 04:03:15;;;;;;;0.00;0.00;;;5.00;99.90;;;;;;6153061;23;20426;-67
2021/03/16 04:05:42;;;;;;;0.00;0.00;;;5.00;99.90;;;;;;6153643;23;20375;-67
2021/03/16 04:08:09;;;;;;;0.00;0.00;;;5.10;99.90;;;;;;6153376;23;20382;-66
2021/03/16 04:10:38;;;;;;;0.00;0.00;;;5.10;99.90;;;;;;6153124;23;20896;-66
2021/03/16 04:13:06;;;;;;;0.00;0.00;;;5.10;99.90;;;;;;6152902;23;20389;-66
2021/03/16 04:15:33;;;;;;;0.00;0.00;;;5.10;99.90;;;;;;6153573;23;20443;-66
2021/03/16 04:18:00;;;;;;;0.00;0.00;;;5.10;99.90;;;;;;6153081;23;20448;-67
2021/03/16 04:20:27;;;;;;;0.00;0.00;;;5.10;99.90;;;;;;6152138;23;20442;-67
2021/03/16 04:22:54;;;;;;;0.00;0.00;;;5.10;99.90;;;;;;6152030;23;20378;-67
2021/03/16 04:25:20;;;;;;;0.00;0.00;;;5.20;99.90;;;;;;6153155;23;20371;-67
2021/03/16 04:27:46;;;;;;;0.00;0.00;;;5.20;99.90;;;;;;6153437;23;20379;-66
2021/03/16 04:30:14;;;;;;;0.00;0.00;;;5.10;99.90;;;;;;6152483;23;20751;-65
2021/03/16 04:32:40;;;;;;;0.00;0.00;;;5.10;99.90;;;;;;6153395;23;20691;-65
2021/03/16 04:35:08;;;;;;;0.00;0.00;;;5.10;99.90;;;;;;6153255;23;20375;-66
2021/03/16 04:37:34;;;;;;;0.00;0.00;;;5.20;99.90;;;;;;6152848;23;20395;-65
2021/03/16 04:40:00;;;;;;;0.00;0.00;;;5.20;99.90;;;;;;6152379;23;20743;-65
2021/03/16 04:42:26;;;;;;;0.00;0.00;;;5.20;99.90;;;;;;6153117;23;20381;-66
2021/03/16 04:44:52;;;;;;;0.00;0.00;;;5.20;99.90;;;;;;6153298;23;20383;-65
2021/03/16 04:47:19;;;;;;;0.00;0.00;;;5.10;99.90;;;;;;6153070;23;20415;-65
2021/03/16 04:49:45;;;;;;;0.00;0.00;;;5.10;99.90;;;;;;6152758;23;20383;-66
2021/03/16 04:52:11;;;;;;;0.00;0.00;;;5.10;99.90;;;;;;6152383;23;20936;-66
2021/03/16 04:54:38;;;;;;;0.00;0.00;;;5.10;99.90;;;;;;6152938;23;20378;-66
2021/03/16 04:57:04;;;;;;;0.00;0.00;;;5.10;99.90;;;;;;6152838;23;20383;-66
2021/03/16 04:59:30;;;;;;;0.00;0.00;;;5.20;99.90;;;;;;6152419;23;20698;-66
2021/03/16 05:01:56;;;;;;;0.00;0.00;;;5.20;99.90;;;;;;6152847;23;20437;-65
2021/03/16 05:04:23;;;;;;;0.00;0.00;;;5.10;99.90;;;;;;6152981;23;20434;-65
2021/03/16 05:06:50;;;;;;;0.00;0.00;;;5.10;99.90;;;;;;6153393;23;20383;-66
2021/03/16 05:09:16;;;;;;;0.00;0.00;;;5.10;99.90;;;;;;6152504;23;20453;-67
2021/03/16 05:11:42;;;;;;;0.00;0.00;;;5.10;99.90;;;;;;6153050;23;20419;-66
2021/03/16 05:14:08;;;;;;;0.00;0.00;;;5.20;99.90;;;;;;6149618;23;20380;-67
2021/03/16 05:16:34;;;;;;;0.00;0.00;;;5.20;99.90;;;;;;6152769;23;20864;-66
2021/03/16 05:19:01;;;;;;;0.00;0.00;;;5.20;99.90;;;;;;6152450;23;20762;-67
2021/03/16 05:21:28;;;;;;;0.00;0.00;;;5.10;99.90;;;;;;6151446;23;20466;-64
2021/03/16 05:23:54;;;;;;;0.00;0.00;;;5.10;99.90;;;;;;6152224;23;20384;-66
2021/03/16 05:26:21;;;;;;;0.00;0.00;;;5.10;99.90;;;;;;6152300;23;20371;-65
2021/03/16 05:28:47;;;;;;;0.00;0.00;;;5.10;99.90;;;;;;6152235;23;20406;-65
2021/03/16 05:31:13;;;;;;;0.00;0.00;;;5.10;99.90;;;;;;6152237;23;20390;-66
2021/03/16 05:33:39;;;;;;;0.00;0.00;;;5.10;99.90;;;;;;6152755;23;20385;-66
2021/03/16 05:36:06;;;;;;;0.00;0.00;;;5.10;99.90;;;;;;6152733;23;20379;-67
2021/03/16 05:38:33;;;;;;;0.00;0.00;;;5.10;99.90;;;;;;6151759;23;20945;-66
2021/03/16 05:41:00;;;;;;;0.00;0.00;;;5.10;99.90;;;;;;6152635;23;20386;-67
2021/03/16 05:43:27;;;;;;;0.00;0.00;;;5.10;99.90;;;;;;6152165;23;20392;-66
2021/03/16 05:45:55;;;;;;;0.00;0.00;;;5.10;99.90;;;;;;6152830;23;20378;-65
2021/03/16 05:48:24;;;;;;;0.00;0.00;;;5.10;99.90;;;;;;6150999;23;20403;-65
2021/03/16 05:50:51;;;;;;;0.00;0.00;;;5.10;99.90;;;;;;6152212;23;20423;-66
2021/03/16 05:53:17;;;;;;;0.00;0.00;;;5.20;99.90;;;;;;6152502;23;20378;-67
2021/03/16 05:55:45;;;;;;;0.00;0.00;;;5.10;99.90;;;;;;6152625;23;20381;-66
2021/03/16 05:58:11;;;;;;;0.00;0.00;;;5.20;99.90;;;;;;6154027;23;20386;-67
2021/03/16 06:00:38;;;;;;;0.00;0.00;;;5.30;99.90;;;;;;6153052;23;20382;-66
2021/03/16 06:03:04;;;;;;;0.00;0.00;;;5.30;99.90;;;;;;6153919;23;20870;-67
2021/03/16 06:05:30;;;;;;;0.00;0.00;;;5.30;99.90;;;;;;6154023;23;20389;-66
2021/03/16 06:07:57;;;;;;;0.00;0.00;;;5.30;99.90;;;;;;6154565;23;20378;-66
2021/03/16 06:10:23;;;;;;;0.00;0.00;;;5.30;99.90;;;;;;6153449;23;20386;-65
2021/03/16 06:12:50;;;;;;;0.00;0.00;;;5.30;99.90;;;;;;6153589;23;20386;-67
2021/03/16 06:15:20;;;;;;;0.00;0.00;;;5.30;99.90;;;;;;6153506;23;21264;-66
2021/03/16 06:17:47;;;;;;;0.00;0.00;;;5.30;99.90;;;;;;6153768;23;20383;-67
2021/03/16 06:20:25;;;;;;;0.00;0.00;;;5.30;99.90;;;;;;6153976;23;20396;-65
2021/03/16 06:23:05;;;;;;;0.00;0.00;;;5.30;99.90;;;;;;6153510;23;20384;-66
2021/03/16 06:25:32;;;;;;;0.00;0.00;;;5.40;99.90;;;;;;6154497;23;20402;-67
2021/03/16 06:28:03;;;;;;;0.00;0.00;;;5.30;99.90;;;;;;6154519;23;20383;-67
2021/03/16 06:30:29;;;;;;;0.00;0.00;;;5.20;99.90;;;;;;6152793;23;20384;-68
2021/03/16 06:32:56;;;;;;;0.00;0.00;;;5.30;99.90;;;;;;6154290;23;20680;-67
2021/03/16 06:35:22;;;;;;;0.00;0.00;;;5.20;99.90;;;;;;6149431;23;20862;-68
2021/03/16 06:38:03;;;;;;;0.00;0.00;;;5.30;99.90;;;;;;6153482;23;20386;-68
2021/03/16 06:40:30;;;;;;;0.00;0.00;;;5.30;99.90;;;;;;6152596;23;20382;-64
2021/03/16 06:43:08;;;;;;;0.00;0.00;;;5.40;99.90;;;;;;6153576;23;20402;-65
2021/03/16 06:45:36;;;;;;;0.00;0.00;;;5.40;99.90;;;;;;6153170;23;20408;-66
2021/03/16 06:48:14;;;;;;;0.00;0.00;;;5.40;99.90;;;;;;6153944;23;20383;-65
2021/03/16 06:50:40;;;;;;;0.00;0.00;;;5.50;99.90;;;;;;6153098;23;20418;-65
2021/03/16 06:53:12;;;;;;;0.00;0.00;;;5.50;99.90;;;;;;6153081;23;20969;-66
2021/03/16 06:55:38;;;;;;;0.00;0.00;;;5.50;99.90;;;;;;6152982;23;20428;-65
2021/03/16 06:58:07;;;;;;;0.00;0.00;;;5.50;99.90;;;;;;6152901;23;20383;-67
2021/03/16 07:00:33;;;;;;;0.00;0.00;;;5.50;99.90;;;;;;6153266;23;20441;-65
2021/03/16 07:02:59;;;;;;;0.00;0.00;;;5.50;99.90;;;;;;6153035;23;20386;-65
2021/03/16 07:05:26;;;;;;;0.00;0.00;;;5.50;99.90;;;;;;6152794;23;20388;-66
2021/03/16 07:07:53;;;;;;;0.00;0.00;;;5.50;99.90;;;;;;6151778;23;20378;-68
2021/03/16 07:10:22;;;;;;;0.00;0.00;;;4.90;99.90;;;;;;6150618;23;20365;-68
2021/03/16 07:12:49;;;;;;;0.00;0.00;;;5.60;99.90;;;;;;6152645;23;20874;-68
2021/03/16 07:15:18;;;;;;;0.00;0.00;;;5.70;99.90;;;;;;6152920;23;20861;-68
2021/03/16 07:17:44;;;;;;;0.00;0.00;;;5.80;99.90;;;;;;6152933;23;20509;-68
2021/03/16 07:20:12;;;;;;;0.00;0.00;;;5.90;99.90;;;;;;6152501;23;20383;-68
2021/03/16 07:22:49;;;;;;;0.00;0.00;;;5.90;99.90;;;;;;6153371;23;20387;-67
2021/03/16 07:25:16;;;;;;;0.00;0.00;;;6.00;99.90;;;;;;6151261;23;20380;-66
2021/03/16 07:27:42;;;;;;;0.00;0.00;;;6.10;99.90;;;;;;6152760;23;20410;-67
2021/03/16 07:30:10;;;;;;;0.00;0.00;;;6.10;99.90;;;;;;6152796;23;20398;-65
2021/03/16 07:32:37;;;;;;;0.00;0.00;;;6.00;99.90;;;;;;6152648;23;20407;-66
2021/03/16 07:35:04;;;;;;;0.00;0.00;;;6.20;99.90;;;;;;6152818;23;20430;-65
2021/03/16 07:37:31;;;;;;;0.00;0.00;;;6.10;99.90;;;;;;6152992;23;20850;-65
2021/03/16 07:40:03;;;;;;;0.00;0.00;;;6.10;99.90;;;;;;6152879;23;20429;-65
2021/03/16 07:42:30;;;;;;;0.00;0.00;;;6.10;99.90;;;;;;6153256;23;20384;-66
2021/03/16 07:44:56;;;;;;;0.00;0.00;;;6.10;99.90;;;;;;6152722;23;20378;-67
2021/03/16 07:47:34;;;;;;;0.00;0.00;;;6.20;99.90;;;;;;6153352;23;20394;-69
2021/03/16 07:50:03;;;;;;;0.00;0.00;;;5.90;99.90;;;;;;6151480;23;20867;-67
2021/03/16 07:52:30;;;;;;;0.00;0.00;;;6.00;99.90;;;;;;6152992;23;20403;-67
2021/03/16 07:54:56;;;;;;;0.00;0.00;;;6.00;99.90;;;;;;6152562;23;20775;-67
2021/03/16 07:57:27;;;;;;;0.00;0.00;;;6.10;99.90;;;;;;6153009;23;20383;-69
2021/03/16 08:00:00;;;;;;;0.00;0.00;;;6.10;99.90;;;;;;6152389;23;20522;-68
2021/03/16 08:02:27;;;;;;;0.00;0.00;;;6.20;99.90;;;;;;6152654;23;21077;-68
2021/03/16 08:04:53;;;;;;;0.00;0.00;;;6.50;99.90;;;;;;6152738;23;20412;-67
2021/03/16 08:07:22;;;;;;;0.00;0.00;;;6.80;99.90;;;;;;6152538;23;20442;-67
2021/03/16 08:09:51;;;;;;;0.00;0.00;;;7.10;99.90;;;;;;6152418;23;20387;-68
2021/03/16 08:12:19;;;;;;;0.00;0.00;;;7.20;99.90;;;;;;6152219;23;20400;-66
2021/03/16 08:14:45;;;;;;;0.00;0.00;;;7.20;99.90;;;;;;6152476;23;20402;-66
2021/03/16 08:17:11;;;;;;;0.00;0.00;;;7.30;99.90;;;;;;6152315;23;20707;-66
2021/03/16 08:19:39;;;;;;;0.00;0.00;;;7.30;99.90;;;;;;6152020;23;20694;-63
2021/03/16 08:22:06;;;;;;;0.00;0.00;;;7.30;99.90;;;;;;6152852;23;20411;-64
2021/03/16 08:24:38;;;;;;;0.00;0.00;;;7.20;99.90;;;;;;6151684;23;20410;-64
2021/03/16 08:27:07;;;;;;;0.00;0.00;;;7.10;99.90;;;;;;6152933;23;20437;-64
2021/03/16 08:29:34;;;;;;;0.00;0.00;;;6.70;99.90;;;;;;6151676;23;20446;-65
2021/03/16 08:32:00;;;;;;;0.00;0.00;;;6.70;99.90;;;;;;6152550;23;20407;-65
2021/03/16 08:34:28;;;;;;;0.00;0.00;;;6.70;99.90;;;;;;6152252;23;20384;-65
2021/03/16 08:36:54;;;;;;;0.00;0.00;;;6.70;99.90;;;;;;6152712;23;20379;-65
2021/03/16 08:39:22;;;;;;;0.00;0.00;;;6.40;99.90;;;;;;6151796;23;20852;-66
2021/03/16 08:41:57;;;;;;;0.00;0.00;;;6.50;99.90;;;;;;6152263;23;20379;-66
2021/03/16 08:44:23;;;;;;;0.00;0.00;;;6.60;99.90;;;;;;6152418;23;20624;-66
2021/03/16 08:46:50;;;;;;;0.00;0.00;;;6.70;99.90;;;;;;6152409;23;20378;-66
2021/03/16 08:49:17;;;;;;;0.00;0.00;;;6.70;99.90;;;;;;6152174;23;20379;-66
2021/03/16 08:51:43;;;;;;;0.00;0.00;;;6.80;99.90;;;;;;6152576;23;20398;-64
2021/03/16 08:54:10;;;;;;;0.00;0.00;;;6.90;99.90;;;;;;6151614;23;20410;-65
2021/03/16 08:56:36;;;;;;;0.00;0.00;;;7.00;99.90;;;;;;6152668;23;20386;-64
2021/03/16 08:59:05;;;;;;;0.00;0.00;;;6.90;99.90;;;;;;6151694;23;20375;-64
2021/03/16 09:01:32;;;;;;;0.00;0.00;;;7.00;99.90;;;;;;6152243;23;20396;-64
2021/03/16 09:04:09;;;;;;;0.00;0.00;;;7.00;99.90;;;;;;6152210;23;20374;-64
2021/03/16 09:06:35;;;;;;;0.00;0.00;;;7.10;99.90;;;;;;6152697;23;20799;-65
2021/03/16 09:09:01;;;;;;;0.00;0.00;;;6.90;99.90;;;;;;6152222;23;20386;-63
2021/03/16 09:11:29;;;;;;;0.00;0.00;;;7.00;99.90;;;;;;6152123;23;20393;-64
2021/03/16 09:14:11;;;;;;;0.00;0.00;;;7.00;99.90;;;;;;6152277;23;20486;-64
2021/03/16 09:16:42;;;;;;;0.00;0.00;;;7.50;99.90;;;;;;6152479;23;20486;-64
2021/03/16 09:19:11;;;;;;;0.00;0.00;;;7.80;99.90;;;;;;6152515;23;20808;-64
2021/03/16 09:21:47;;;;;;;0.00;0.00;;;8.10;99.90;;;;;;6152419;23;20377;-65
2021/03/16 09:24:13;;;;;;;0.00;0.00;;;8.20;99.90;;;;;;6152460;23;20379;-64
2021/03/16 09:26:40;;;;;;;0.00;0.00;;;8.10;99.90;;;;;;6152536;23;20854;-65
2021/03/16 09:29:07;;;;;;;0.00;0.00;;;8.20;99.90;;;;;;6152525;23;20382;-65
2021/03/16 09:31:34;;;;;;;0.00;0.00;;;7.70;99.90;;;;;;6154318;23;20878;-64
2021/03/16 09:34:00;;;;;;;0.00;0.00;;;7.60;99.90;;;;;;6153703;23;21101;-66
2021/03/16 09:36:28;;;;;;;0.00;0.00;;;7.70;99.90;;;;;;6154718;23;20454;-66
2021/03/16 09:38:56;;;;;;;0.00;0.00;;;7.70;99.90;;;;;;6154191;23;20745;-68
2021/03/16 09:41:22;;;;;;;0.00;0.00;;;7.70;99.90;;;;;;6154378;23;20378;-68
2021/03/16 09:43:49;;;;;;;0.00;0.00;;;7.70;99.90;;;;;;6153555;23;20862;-67
2021/03/16 09:46:16;;;;;;;0.00;0.00;;;7.70;99.90;;;;;;6155085;23;20383;-66
2021/03/16 09:48:47;;;;;;;0.00;0.00;;;7.60;99.90;;;;;;6154634;23;20375;-66
2021/03/16 09:51:14;;;;;;;0.00;0.00;;;7.60;99.90;;;;;;6154238;23;20398;-68
2021/03/16 09:53:45;;;;;;;0.00;0.00;;;7.40;99.90;;;;;;6153635;23;20466;-66
2021/03/16 09:56:12;;;;;;;0.00;0.00;;;7.50;99.90;;;;;;6151938;23;20438;-68
2021/03/16 09:58:38;;;;;;;0.00;0.00;;;7.60;99.90;;;;;;6154130;23;20375;-67
2021/03/16 10:01:05;;;;;;;0.00;0.00;;;7.60;99.90;;;;;;6154243;23;20434;-67
2021/03/16 10:03:32;;;;;;;0.00;0.00;;;7.70;99.90;;;;;;6152179;23;20387;-67
2021/03/16 10:06:03;;;;;;;0.00;0.00;;;7.80;99.90;;;;;;6153601;23;20472;-65
2021/03/16 10:08:29;;;;;;;0.00;0.00;;;8.10;99.90;;;;;;6153802;23;20396;-64
2021/03/16 10:10:57;;;;;;;0.00;0.00;;;8.30;99.90;;;;;;6154225;23;20398;-65
2021/03/16 10:13:31;;;;;;;0.00;0.00;;;8.40;99.90;;;;;;6153342;23;20379;-65
2021/03/16 10:16:05;;;;;;;0.00;0.00;;;8.30;99.90;;;;;;6154123;23;20419;-65
2021/03/16 10:18:38;;;;;;;0.00;0.00;;;8.30;99.90;;;;;;6153144;23;20874;-65
2021/03/16 10:21:05;;;;;;;0.00;0.00;;;8.10;99.90;;;;;;6153159;23;20903;-65
2021/03/16 10:23:31;;;;;;;0.00;0.00;;;8.10;99.90;;;;;;6153887;23;20379;-66
2021/03/16 10:25:59;;;;;;;0.00;0.00;;;8.20;99.90;;;;;;6153684;23;20379;-66
2021/03/16 10:28:33;;;;;;;0.00;0.00;;;8.20;99.90;;;;;;6154164;23;20378;-67
2021/03/16 10:31:10;;;;;;;0.00;0.00;;;8.50;99.90;;;;;;6153097;23;20507;-64
2021/03/16 10:33:37;;;;;;;0.00;0.00;;;8.60;99.90;;;;;;6154238;23;20431;-64
2021/03/16 10:36:04;;;;;;;0.00;0.00;;;8.50;99.90;;;;;;6153834;23;20483;-64
2021/03/16 10:38:30;;;;;;;0.00;0.00;;;8.30;99.90;;;;;;6153806;23;20382;-66
2021/03/16 10:40:56;;;;;;;0.00;0.00;;;8.50;99.90;;;;;;6152887;23;20386;-66
2021/03/16 10:43:22;;;;;;;0.00;0.00;;;8.70;99.90;;;;;;6153815;23;20488;-66
2021/03/16 10:45:49;;;;;;;0.00;0.00;;;8.90;99.90;;;;;;6153720;23;20875;-66
2021/03/16 10:48:15;;;;;;;0.00;0.00;;;9.20;99.90;;;;;;6153741;23;20386;-67
2021/03/16 10:50:42;;;;;;;0.00;0.00;;;9.30;99.90;;;;;;6152777;23;20889;-68
2021/03/16 10:53:08;;;;;;;0.00;0.00;;;9.30;99.90;;;;;;6152921;23;20449;-67
2021/03/16 10:55:34;;;;;;;0.00;0.00;;;9.20;99.90;;;;;;6153225;23;20746;-66
2021/03/16 10:58:00;;;;;;;0.00;0.00;;;9.00;99.90;;;;;;6153498;23;20912;-66
2021/03/16 11:00:26;;;;;;;0.00;0.00;;;8.70;99.90;;;;;;6153044;23;20562;-66
2021/03/16 11:02:53;;;;;;;0.00;0.00;;;8.60;99.90;;;;;;6153961;23;20886;-66
2021/03/16 11:05:19;;;;;;;0.00;0.00;;;8.50;99.90;;;;;;6153076;23;20414;-66
2021/03/16 11:07:46;;;;;;;0.00;0.00;;;8.40;99.90;;;;;;6153809;23;20702;-68
2021/03/16 11:10:13;;;;;;;0.00;0.00;;;8.20;99.90;;;;;;6153177;23;20379;-68
2021/03/16 11:12:40;;;;;;;0.00;0.00;;;8.00;99.90;;;;;;6152819;23;20658;-67
2021/03/16 11:15:07;;;;;;;0.00;0.00;;;7.80;99.90;;;;;;6152900;23;20379;-68
2021/03/16 11:17:33;;;;;;;0.00;0.00;;;7.60;99.90;;;;;;6153050;23;20392;-67
2021/03/16 11:20:00;;;;;;;0.00;0.00;;;7.60;99.90;;;;;;6152588;23;20395;-68
2021/03/16 11:22:26;;;;;;;0.00;0.00;;;7.60;99.90;;;;;;6153145;23;20375;-68
2021/03/16 11:24:53;;;;;;;0.00;0.00;;;7.40;99.90;;;;;;6153029;23;20379;-69
2021/03/16 11:27:19;;;;;;;0.00;0.00;;;7.40;99.90;;;;;;6153626;23;20398;-65
2021/03/16 11:29:45;;;;;;;0.00;0.00;;;7.40;99.90;;;;;;6152628;23;20390;-65
2021/03/16 11:32:11;;;;;;;0.00;0.00;;;7.50;99.90;;;;;;6153495;23;20391;-65
2021/03/16 11:34:37;;;;;;;0.00;0.00;;;7.40;99.90;;;;;;6152782;23;20891;-65
2021/03/16 11:37:04;;;;;;;0.00;0.00;;;7.30;99.90;;;;;;6152318;23;20881;-66
2021/03/16 11:39:30;;;;;;;0.00;0.00;;;7.30;99.90;;;;;;6152449;23;20379;-66
2021/03/16 11:41:57;;;;;;;0.00;0.00;;;7.30;99.90;;;;;;6153223;23;20375;-65
2021/03/16 11:44:24;;;;;;;0.00;0.00;;;7.60;99.90;;;;;;6153049;23;20388;-66
2021/03/16 11:46:50;;;;;;;0.00;0.00;;;7.80;99.90;;;;;;6153592;23;20383;-69
2021/03/16 11:49:17;;;;;;;0.00;0.00;;;7.80;99.90;;;;;;6153652;23;20379;-68
2021/03/16 11:51:45;;;;;;;0.00;0.00;;;7.80;99.90;;;;;;6152199;23;20903;-69
2021/03/16 11:54:11;;;;;;;0.00;0.00;;;7.90;99.90;;;;;;6152575;23;20402;-68
2021/03/16 11:56:38;;;;;;;0.00;0.00;;;8.10;99.90;;;;;;6152971;23;20379;-68
2021/03/16 11:59:05;;;;;;;0.00;0.00;;;8.40;99.90;;;;;;6152256;23;20394;-68
2021/03/16 12:01:31;;;;;;;0.00;0.00;;;8.40;99.90;;;;;;6152914;23;20445;-69
2021/03/16 12:04:00;;;;;;;0.00;0.00;;;8.40;99.90;;;;;;6152770;23;20713;-69
2021/03/16 12:06:26;;;;;;;0.00;0.00;;;8.40;99.90;;;;;;6153447;23;20447;-68
2021/03/16 12:08:52;;;;;;;0.00;0.00;;;8.50;99.90;;;;;;6151775;23;20375;-67
2021/03/16 12:11:18;;;;;;;0.00;0.00;;;8.60;99.90;;;;;;6152467;23;20714;-69
2021/03/16 12:13:45;;;;;;;0.00;0.00;;;8.80;99.90;;;;;;6152397;23;20401;-66
2021/03/16 12:16:12;;;;;;;0.00;0.00;;;8.90;99.90;;;;;;6149496;23;20383;-66
2021/03/16 12:18:38;;;;;;;0.00;0.00;;;9.00;99.90;;;;;;6149710;23;20375;-66
2021/03/16 12:21:05;;;;;;;0.00;0.00;;;8.90;99.90;;;;;;6150474;23;20378;-66
2021/03/16 12:23:31;;;;;;;0.00;0.00;;;8.60;99.90;;;;;;6151826;23;20394;-66
2021/03/16 12:25:57;;;;;;;0.00;0.00;;;8.70;99.90;;;;;;6150470;23;20378;-67
2021/03/16 12:28:24;;;;;;;0.00;0.00;;;8.80;99.90;;;;;;6151162;23;20375;-66
2021/03/16 12:30:50;;;;;;;0.00;0.00;;;9.00;99.90;;;;;;6152190;23;20445;-66
2021/03/16 12:33:17;;;;;;;0.00;0.00;;;9.10;99.90;;;;;;6152298;23;20873;-64
2021/03/16 12:35:44;;;;;;;0.00;0.00;;;9.10;99.90;;;;;;6152489;23;20439;-67
2021/03/16 12:38:10;;;;;;;0.00;0.00;;;9.20;99.90;;;;;;6152074;23;20390;-67
2021/03/16 12:40:37;;;;;;;0.00;0.00;;;9.20;99.90;;;;;;6152940;23;20416;-66
2021/03/16 12:43:03;;;;;;;0.00;0.00;;;9.20;99.90;;;;;;6153524;23;20375;-68
2021/03/16 12:45:30;;;;;;;0.00;0.00;;;9.10;99.90;;;;;;6152621;23;20710;-67
2021/03/16 12:47:56;;;;;;;0.00;0.00;;;9.10;99.90;;;;;;6152543;23;20383;-67
2021/03/16 12:50:23;;;;;;;0.00;0.00;;;9.10;99.90;;;;;;6151958;23;20378;-67
2021/03/16 12:52:50;;;;;;;0.00;0.00;;;8.90;99.90;;;;;;6152768;23;20411;-67
2021/03/16 12:55:16;;;;;;;0.00;0.00;;;8.80;99.90;;;;;;6151790;23;20382;-67
2021/03/16 12:57:42;;;;;;;0.00;0.00;;;8.70;99.90;;;;;;6152981;23;20491;-67
2021/03/16 13:00:10;;;;;;;0.00;0.00;;;8.60;99.90;;;;;;6152378;23;20383;-66